Fort Stanwix National Monume, New York
Current Conditions -  °F | °C
As of 12:53 PM on Saturday 25 Oct 2014 (Local Time) from KRME Reporting Station
Few Clouds Few Clouds  
Wind Chill: 58°   Ceiling: Unl
Heat Index: 58°   Visibility: 10mi
Dew Point: 48°   Wind: 6mph
Humidity: 70%   Direction: 120°ESE
Pressure: 29.69"   Gusts: NA
Location:  43.2466°N, 75.4624°W
Report Text: KRME 251653Z 12005KT 10SM FEW034 14/09 A2969 RMK AO2 PRESFR SLP054 T01440089
Loading
Personal Weather Stations






























Interactive Weather Map
Tropical Storm Tracking
New forecast layout! Learn more

10-Day Weather Forecast

Advertisements
Track Severe Weather on mobile